createdAt,value
2022-08-17T00:00:38.018Z,60.36
2022-08-17T00:05:45.065Z,60.30
2022-08-17T00:10:51.576Z,60.31
2022-08-17T00:16:00.271Z,60.22
2022-08-17T00:21:10.342Z,60.18
2022-08-17T00:26:16.611Z,60.04
2022-08-17T00:31:42.312Z,60.11
2022-08-17T00:36:47.694Z,60.06
2022-08-17T00:41:53.831Z,59.95
2022-08-17T00:47:00.147Z,59.91
2022-08-17T00:52:12.050Z,59.81
2022-08-17T00:57:20.260Z,59.74
2022-08-17T01:02:26.789Z,59.71
2022-08-17T01:07:32.076Z,59.81
2022-08-17T01:12:43.816Z,59.72
2022-08-17T01:17:50.539Z,59.62
2022-08-17T01:22:56.068Z,59.65
2022-08-17T01:28:02.927Z,59.82
2022-08-17T01:33:11.790Z,59.84
2022-08-17T01:38:17.496Z,59.83
2022-08-17T01:43:34.495Z,59.82
2022-08-17T01:48:40.696Z,59.81
2022-08-17T01:53:49.438Z,59.85
2022-08-17T01:58:55.413Z,60.01
2022-08-17T02:04:01.995Z,60.08
2022-08-17T02:09:07.980Z,60.15
2022-08-17T02:14:22.265Z,59.94
2022-08-17T02:19:27.612Z,60.00
2022-08-17T02:24:59.441Z,60.16
2022-08-17T02:30:00.290Z,60.24
2022-08-17T02:35:06.350Z,60.40
2022-08-17T02:40:15.216Z,60.60
2022-08-17T02:45:23.234Z,60.76
2022-08-17T02:50:28.838Z,60.91
2022-08-17T02:55:35.974Z,60.91
2022-08-17T03:00:42.669Z,60.86
2022-08-17T03:05:49.837Z,60.81
2022-08-17T03:10:55.404Z,60.69
2022-08-17T03:16:00.684Z,60.89
2022-08-17T03:21:07.234Z,60.89
2022-08-17T03:26:15.540Z,60.59
2022-08-17T03:31:22.247Z,60.66
2022-08-17T03:36:27.806Z,60.60
2022-08-17T03:41:33.475Z,60.89
2022-08-17T03:46:57.349Z,61.53
2022-08-17T03:52:20.432Z,61.84
2022-08-17T03:57:26.135Z,62.00
2022-08-17T04:02:32.801Z,62.37
2022-08-17T04:07:38.592Z,62.53
2022-08-17T04:12:49.124Z,62.83
2022-08-17T04:17:54.725Z,62.99
2022-08-17T04:23:02.525Z,62.97
2022-08-17T04:28:16.318Z,63.05
2022-08-17T04:33:24.419Z,63.25
2022-08-17T04:38:31.516Z,63.45
2022-08-17T04:43:37.877Z,63.60
2022-08-17T04:48:44.615Z,63.87
2022-08-17T04:53:54.044Z,63.95
2022-08-17T04:59:01.204Z,64.12
2022-08-17T05:04:33.220Z,64.16
2022-08-17T05:09:33.114Z,64.24
2022-08-17T05:14:40.144Z,64.21
2022-08-17T05:19:49.992Z,64.40
2022-08-17T05:24:57.761Z,64.32
2022-08-17T05:30:03.510Z,64.19
2022-08-17T05:35:10.057Z,64.04
2022-08-17T05:40:16.060Z,63.81
2022-08-17T05:45:54.489Z,63.57
2022-08-17T05:50:50.983Z,63.51
2022-08-17T05:56:02.042Z,63.36
2022-08-17T06:01:09.892Z,63.32
2022-08-17T06:06:31.360Z,63.40
2022-08-17T06:11:40.768Z,63.27
2022-08-17T06:16:48.105Z,63.24
2022-08-17T06:21:55.407Z,63.26
2022-08-17T06:27:03.483Z,63.21
2022-08-17T06:32:12.114Z,62.88
2022-08-17T06:37:29.069Z,62.94
2022-08-17T06:43:04.105Z,62.75
2022-08-17T06:48:08.270Z,62.65
2022-08-17T06:53:21.367Z,62.52
2022-08-17T06:58:29.765Z,62.18
2022-08-17T07:03:38.457Z,62.05
2022-08-17T07:08:50.246Z,61.71
2022-08-17T07:14:00.666Z,61.69
2022-08-17T07:19:07.703Z,61.55
2022-08-17T07:24:29.372Z,61.38
2022-08-17T07:29:41.910Z,61.15
2022-08-17T07:35:11.607Z,60.65
2022-08-17T07:40:22.603Z,60.21
2022-08-17T07:45:45.509Z,59.69
2022-08-17T07:50:54.835Z,59.35
2022-08-17T07:56:00.168Z,59.02
2022-08-17T08:06:48.818Z,57.92
2022-08-17T08:11:54.763Z,57.60
2022-08-17T08:17:01.081Z,57.52
2022-08-17T08:22:08.069Z,57.31
2022-08-17T08:27:21.470Z,56.89
2022-08-17T08:32:34.784Z,56.45
2022-08-17T08:37:47.046Z,55.97
2022-08-17T08:42:57.107Z,55.51
2022-08-17T08:48:23.133Z,55.30
2022-08-17T08:53:37.939Z,54.89
2022-08-17T08:58:47.623Z,54.66
2022-08-17T09:04:23.432Z,54.00
2022-08-17T09:09:39.766Z,53.35
2022-08-17T09:14:49.979Z,52.61
2022-08-17T09:19:57.893Z,52.01
2022-08-17T09:25:09.375Z,52.05
2022-08-17T09:30:16.250Z,51.73
2022-08-17T09:35:32.875Z,51.12
2022-08-17T09:40:46.906Z,50.83
2022-08-17T09:45:54.650Z,50.59
2022-08-17T09:51:04.812Z,50.44
2022-08-17T09:56:25.576Z,50.21
2022-08-17T10:01:35.829Z,49.86
2022-08-17T10:06:48.063Z,49.82
2022-08-17T10:12:17.155Z,49.48
2022-08-17T10:17:27.182Z,49.11
2022-08-17T10:22:54.782Z,48.47
2022-08-17T10:28:01.596Z,48.37
2022-08-17T10:33:08.512Z,48.08
2022-08-17T10:38:36.925Z,47.82
2022-08-17T10:44:28.561Z,47.26
2022-08-17T10:49:25.331Z,47.06
2022-08-17T10:54:43.718Z,46.31
2022-08-17T10:59:53.394Z,46.05
2022-08-17T11:05:09.284Z,45.83
2022-08-17T11:10:27.680Z,45.57
2022-08-17T11:15:42.836Z,45.44
2022-08-17T11:21:01.265Z,45.32
2022-08-17T11:26:21.649Z,45.14
2022-08-17T11:31:38.761Z,44.65
2022-08-17T11:36:58.042Z,44.21
2022-08-17T11:42:07.014Z,43.96
2022-08-17T11:47:33.966Z,44.00
2022-08-17T11:52:41.080Z,43.89
2022-08-17T11:58:02.009Z,43.58
2022-08-17T12:03:25.414Z,43.24
2022-08-17T12:08:33.025Z,43.30
2022-08-17T12:13:40.521Z,43.27
2022-08-17T12:18:50.352Z,43.02
2022-08-17T12:23:59.189Z,42.97
2022-08-17T12:29:06.399Z,43.00
2022-08-17T12:34:17.997Z,42.80
2022-08-17T12:39:25.180Z,42.53
2022-08-17T12:44:32.518Z,42.48
2022-08-17T12:49:38.723Z,41.99
2022-08-17T12:54:48.493Z,41.85
2022-08-17T12:59:56.269Z,41.52
2022-08-17T13:05:03.061Z,41.47
2022-08-17T13:10:08.863Z,41.30
2022-08-17T13:15:21.601Z,40.95
2022-08-17T13:20:26.954Z,40.43
2022-08-17T13:25:32.756Z,40.32
2022-08-17T13:30:38.325Z,40.42
2022-08-17T13:35:50.321Z,40.53
2022-08-17T13:40:55.926Z,40.62
2022-08-17T13:46:09.088Z,40.58
2022-08-17T13:51:30.286Z,40.42
2022-08-17T13:56:58.047Z,40.36
2022-08-17T14:02:05.304Z,40.48
2022-08-17T14:12:42.556Z,40.84
2022-08-17T14:17:49.722Z,40.73
2022-08-17T14:22:56.298Z,40.66
2022-08-17T14:28:01.933Z,40.63
2022-08-17T14:33:08.707Z,40.72
2022-08-17T14:38:15.499Z,41.02
2022-08-17T14:43:21.408Z,40.99
2022-08-17T14:48:27.444Z,40.98
2022-08-17T14:53:33.247Z,41.08
2022-08-17T14:58:39.297Z,40.95
2022-08-17T15:03:45.514Z,40.92
2022-08-17T15:08:51.113Z,40.91
2022-08-17T15:13:56.780Z,40.67
2022-08-17T15:19:02.210Z,40.72
2022-08-17T15:24:08.947Z,40.70
2022-08-17T15:29:14.462Z,40.76
2022-08-17T15:34:20.058Z,40.56
2022-08-17T15:39:25.446Z,40.63
2022-08-17T15:44:34.835Z,40.68
2022-08-17T15:49:43.018Z,40.88
2022-08-17T15:54:53.603Z,40.90
2022-08-17T15:59:59.633Z,40.66
2022-08-17T16:05:10.115Z,40.76
2022-08-17T16:10:19.050Z,40.74
2022-08-17T16:15:25.670Z,41.13
2022-08-17T16:20:31.509Z,41.07
2022-08-17T16:25:50.357Z,41.24
2022-08-17T16:30:58.949Z,41.46
2022-08-17T16:36:04.882Z,41.46
2022-08-17T16:41:10.752Z,41.69
2022-08-17T16:46:16.379Z,41.61
2022-08-17T16:51:21.968Z,41.82
2022-08-17T16:56:27.734Z,41.92
2022-08-17T17:01:33.454Z,42.18
2022-08-17T17:06:45.495Z,42.36
2022-08-17T17:11:53.249Z,42.45
2022-08-17T17:17:04.433Z,42.72
2022-08-17T17:22:15.182Z,42.97
2022-08-17T17:27:26.649Z,42.97
2022-08-17T17:32:39.138Z,43.16
2022-08-17T17:37:45.661Z,43.41
2022-08-17T17:42:54.245Z,43.61
2022-08-17T17:47:59.763Z,43.78
2022-08-17T17:53:07.937Z,43.87
2022-08-17T17:58:24.026Z,44.22
2022-08-17T18:03:35.193Z,44.28
2022-08-17T18:08:47.778Z,44.44
2022-08-17T18:14:00.220Z,44.65
2022-08-17T18:19:07.118Z,44.98
2022-08-17T18:24:12.857Z,45.03
2022-08-17T18:29:36.265Z,45.36
2022-08-17T18:34:47.747Z,45.45
2022-08-17T18:39:54.194Z,45.68
2022-08-17T18:44:59.603Z,45.73
2022-08-17T18:50:18.540Z,45.96
2022-08-17T18:55:25.068Z,46.13
2022-08-17T19:00:37.296Z,46.46
2022-08-17T19:05:44.357Z,46.75
2022-08-17T19:10:51.966Z,47.02
2022-08-17T19:16:14.177Z,47.14
2022-08-17T19:21:23.225Z,47.28
2022-08-17T19:26:53.978Z,47.53
2022-08-17T19:31:56.718Z,47.80
2022-08-17T19:37:04.755Z,48.22
2022-08-17T19:42:14.842Z,48.54
2022-08-17T19:47:50.876Z,48.66
2022-08-17T19:52:58.143Z,48.71
2022-08-17T19:58:08.211Z,49.01
2022-08-17T20:03:16.770Z,49.19
2022-08-17T20:08:25.673Z,49.43
2022-08-17T20:13:35.573Z,49.78
2022-08-17T20:18:47.501Z,49.97
2022-08-17T20:23:55.773Z,50.21
2022-08-17T20:29:37.624Z,50.71
2022-08-17T20:34:46.993Z,50.80
2022-08-17T20:40:12.747Z,51.08
2022-08-17T20:45:40.883Z,51.47
2022-08-17T20:50:49.067Z,51.58
2022-08-17T20:55:56.491Z,51.94
2022-08-17T21:01:15.139Z,52.42
2022-08-17T21:06:21.676Z,52.74
2022-08-17T21:12:02.306Z,52.99
2022-08-17T21:17:17.937Z,53.24
2022-08-17T21:22:32.316Z,53.30
2022-08-17T21:27:44.258Z,53.80
2022-08-17T21:38:36.436Z,54.38
2022-08-17T21:43:48.293Z,54.56
2022-08-17T21:48:55.687Z,54.60
2022-08-17T21:54:03.280Z,55.33
2022-08-17T21:59:10.330Z,55.85
2022-08-17T22:04:21.277Z,56.35
2022-08-17T22:09:27.526Z,56.84
2022-08-17T22:14:52.691Z,57.22
2022-08-17T22:20:01.759Z,57.08
2022-08-17T22:25:08.389Z,57.44
2022-08-17T22:30:19.042Z,57.28
2022-08-17T22:35:38.379Z,56.91
2022-08-17T22:40:44.405Z,56.84
2022-08-17T22:45:51.844Z,56.74
2022-08-17T22:51:13.553Z,56.70
2022-08-17T22:56:39.526Z,56.82
2022-08-17T23:01:46.056Z,56.98
2022-08-17T23:06:51.516Z,57.18
2022-08-17T23:11:59.012Z,57.32
2022-08-17T23:17:04.738Z,57.54
2022-08-17T23:22:11.429Z,57.46
2022-08-17T23:27:16.967Z,57.51
2022-08-17T23:32:22.598Z,57.72
2022-08-17T23:37:28.866Z,57.61
2022-08-17T23:42:35.314Z,57.63
2022-08-17T23:47:40.816Z,57.76
2022-08-17T23:52:47.045Z,58.08
2022-08-17T23:57:52.328Z,58.76
